createdAt,value
2018-03-03T00:00:00.504Z,35.23
2018-03-03T00:02:28.047Z,33.47
2018-03-03T00:04:55.560Z,34.10
2018-03-03T00:07:23.093Z,33.73
2018-03-03T00:09:50.609Z,32.80
2018-03-03T00:12:18.123Z,34.47
2018-03-03T00:14:45.655Z,37.37
2018-03-03T00:17:13.159Z,35.07
2018-03-03T00:19:41.237Z,34.10
2018-03-03T00:22:09.151Z,34.77
2018-03-03T00:24:36.792Z,34.67
2018-03-03T00:27:04.351Z,36.20
2018-03-03T00:29:31.892Z,36.43
2018-03-03T00:31:59.407Z,38.30
2018-03-03T00:34:26.957Z,39.00
2018-03-03T00:36:54.591Z,32.90
2018-03-03T00:39:22.126Z,37.43
2018-03-03T00:41:49.636Z,36.20
2018-03-03T00:44:17.192Z,35.67
2018-03-03T00:46:44.699Z,37.33
2018-03-03T00:49:12.240Z,37.93
2018-03-03T00:51:40.151Z,38.53
2018-03-03T00:54:07.781Z,37.33
2018-03-03T00:56:35.356Z,36.60
2018-03-03T00:59:02.930Z,35.67
2018-03-03T01:01:30.470Z,35.97
2018-03-03T01:03:57.979Z,37.73
2018-03-03T01:06:25.588Z,35.80
2018-03-03T01:08:53.094Z,37.87
2018-03-03T01:11:20.634Z,35.47
2018-03-03T01:13:48.143Z,35.80
2018-03-03T01:16:16.083Z,35.60
2018-03-03T01:18:43.588Z,36.13
2018-03-03T01:21:11.129Z,29.40
2018-03-03T01:23:38.637Z,34.80
2018-03-03T01:26:06.161Z,34.90
2018-03-03T01:28:33.675Z,37.50
2018-03-03T01:31:01.283Z,34.63
2018-03-03T01:33:28.799Z,35.77
2018-03-03T01:35:56.732Z,36.10
2018-03-03T01:38:24.263Z,35.13
2018-03-03T01:40:51.813Z,33.73
2018-03-03T01:43:19.323Z,31.43
2018-03-03T01:45:46.832Z,33.87
2018-03-03T01:48:14.365Z,30.53
2018-03-03T01:50:42.300Z,33.50
2018-03-03T01:53:09.836Z,30.10
2018-03-03T01:55:37.351Z,34.53
2018-03-03T01:58:05.291Z,29.57
2018-03-03T02:00:32.806Z,31.80
2018-03-03T02:03:00.339Z,31.77
2018-03-03T02:05:27.926Z,32.13
2018-03-03T02:07:55.559Z,32.03
2018-03-03T02:10:23.080Z,32.23
2018-03-03T02:12:50.614Z,30.93
2018-03-03T02:15:18.142Z,33.03
2018-03-03T02:17:45.692Z,31.87
2018-03-03T02:20:13.215Z,30.53
2018-03-03T02:22:40.735Z,33.23
2018-03-03T02:25:08.273Z,29.97
2018-03-03T02:27:35.866Z,30.27
2018-03-03T02:30:03.412Z,31.23
2018-03-03T02:32:30.923Z,33.30
2018-03-03T02:34:58.860Z,29.77
2018-03-03T02:37:26.406Z,31.27
2018-03-03T02:39:54.036Z,30.10
2018-03-03T02:42:21.600Z,29.43
2018-03-03T02:44:49.140Z,28.40
2018-03-03T02:47:16.657Z,29.97
2018-03-03T02:49:44.207Z,25.97
2018-03-03T02:52:11.868Z,29.03
2018-03-03T02:54:39.508Z,26.40
2018-03-03T02:57:07.038Z,29.13
2018-03-03T02:59:34.563Z,29.40
2018-03-03T03:02:02.119Z,29.17
2018-03-03T03:04:29.635Z,29.20
2018-03-03T03:06:57.167Z,29.90
2018-03-03T03:09:25.089Z,29.60
2018-03-03T03:11:52.630Z,27.73
2018-03-03T03:14:20.143Z,29.33
2018-03-03T03:16:48.082Z,29.47
2018-03-03T03:19:15.599Z,30.00
2018-03-03T03:21:43.149Z,30.13
2018-03-03T03:24:10.668Z,27.17
2018-03-03T03:26:38.187Z,28.53
2018-03-03T03:29:05.719Z,29.57
2018-03-03T03:31:33.241Z,27.60
2018-03-03T03:34:00.775Z,29.77
2018-03-03T03:36:28.288Z,27.90
2018-03-03T03:38:55.832Z,26.87
2018-03-03T03:41:23.828Z,28.27
2018-03-03T03:43:51.362Z,28.77
2018-03-03T03:46:19.283Z,26.40
2018-03-03T03:48:46.815Z,26.03
2018-03-03T03:51:14.327Z,26.57
2018-03-03T03:53:42.267Z,27.43
2018-03-03T03:56:09.908Z,24.27
2018-03-03T03:58:37.454Z,23.43
2018-03-03T04:01:05.012Z,24.50
2018-03-03T04:03:32.541Z,24.23
2018-03-03T04:06:00.488Z,25.60
2018-03-03T04:08:28.103Z,24.70
2018-03-03T04:10:55.654Z,25.30
2018-03-03T04:13:23.191Z,25.37
2018-03-03T04:15:51.128Z,25.50
2018-03-03T04:18:18.736Z,26.40
2018-03-03T04:20:46.508Z,25.27
2018-03-03T04:23:14.023Z,24.10
2018-03-03T04:25:41.950Z,24.83
2018-03-03T04:28:09.474Z,22.53
2018-03-03T04:30:37.000Z,22.60
2018-03-03T04:33:04.519Z,25.00
2018-03-03T04:35:32.064Z,26.00
2018-03-03T04:37:59.570Z,25.73
2018-03-03T04:40:27.179Z,24.20
2018-03-03T04:42:54.736Z,22.90
2018-03-03T04:45:22.270Z,22.97
2018-03-03T04:47:50.203Z,23.37
2018-03-03T04:50:19.642Z,22.50
2018-03-03T04:52:47.751Z,22.73
2018-03-03T04:55:15.267Z,22.83
2018-03-03T04:57:43.200Z,21.03
2018-03-03T05:00:12.578Z,21.33
2018-03-03T05:05:53.123Z,22.47
2018-03-03T05:08:21.070Z,21.20
2018-03-03T05:10:49.871Z,20.87
2018-03-03T05:13:23.551Z,20.10
2018-03-03T05:16:03.807Z,21.53
2018-03-03T05:18:37.011Z,22.63
2018-03-03T05:21:10.564Z,21.33
2018-03-03T05:23:57.791Z,21.90
2018-03-03T05:26:40.202Z,19.87
2018-03-03T05:29:13.523Z,21.83
2018-03-03T05:31:46.584Z,21.47
2018-03-03T05:34:19.975Z,20.77
2018-03-03T05:36:53.335Z,21.80
2018-03-03T05:39:26.399Z,20.53
2018-03-03T05:41:59.867Z,22.13
2018-03-03T05:44:33.103Z,21.77
2018-03-03T05:47:18.492Z,21.50
2018-03-03T05:49:56.751Z,18.90
2018-03-03T05:52:31.935Z,20.17
2018-03-03T05:55:05.238Z,20.27
2018-03-03T05:57:50.438Z,19.17
2018-03-03T06:00:20.456Z,19.47
2018-03-03T06:03:05.804Z,19.07
2018-03-03T06:05:38.966Z,19.90
2018-03-03T06:08:12.459Z,18.80
2018-03-03T06:10:54.998Z,20.67
2018-03-03T06:13:22.599Z,16.80
2018-03-03T06:15:50.271Z,18.10
2018-03-03T06:18:17.779Z,16.80
2018-03-03T06:20:45.295Z,18.70
2018-03-03T06:23:13.236Z,18.70
2018-03-03T06:25:40.748Z,17.47
2018-03-03T06:28:08.283Z,17.03
2018-03-03T06:30:36.275Z,20.17
2018-03-03T06:33:03.803Z,17.57
2018-03-03T06:35:31.726Z,16.47
2018-03-03T06:37:59.256Z,15.20
2018-03-03T06:40:26.770Z,15.37
2018-03-03T06:42:54.311Z,15.90
2018-03-03T06:45:21.827Z,14.87
2018-03-03T06:47:49.398Z,16.70
2018-03-03T06:50:16.923Z,16.83
2018-03-03T06:52:44.847Z,16.07
2018-03-03T06:55:12.357Z,17.03
2018-03-03T06:57:39.967Z,16.20
2018-03-03T07:00:07.471Z,16.03
2018-03-03T07:02:35.470Z,17.50
2018-03-03T07:05:03.000Z,16.97
2018-03-03T07:07:30.935Z,17.53
2018-03-03T07:09:58.560Z,20.70
2018-03-03T07:12:26.068Z,19.37
2018-03-03T07:15:03.917Z,20.33
2018-03-03T07:17:31.532Z,20.40
2018-03-03T07:19:59.447Z,20.60
2018-03-03T07:22:27.017Z,22.60
2018-03-03T07:24:54.520Z,24.00
2018-03-03T07:27:22.439Z,25.50
2018-03-03T07:29:49.984Z,23.20
2018-03-03T07:32:17.486Z,22.77
2018-03-03T07:34:45.032Z,24.43
2018-03-03T07:37:12.536Z,26.90
2018-03-03T07:39:40.467Z,24.93
2018-03-03T07:42:07.982Z,27.93
2018-03-03T07:44:35.512Z,28.10
2018-03-03T07:47:03.423Z,28.23
2018-03-03T07:49:30.978Z,28.77
2018-03-03T07:51:58.502Z,29.50
2018-03-03T07:54:26.075Z,30.93
2018-03-03T07:57:05.459Z,29.83
2018-03-03T07:59:33.180Z,29.40
2018-03-03T08:02:00.722Z,31.97
2018-03-03T08:04:28.259Z,30.93
2018-03-03T08:06:56.195Z,29.60
2018-03-03T08:09:23.718Z,29.40
2018-03-03T08:11:51.243Z,29.23
2018-03-03T08:14:19.156Z,29.77
2018-03-03T08:16:46.755Z,30.87
2018-03-03T08:19:14.318Z,31.13
2018-03-03T08:21:41.848Z,30.97
2018-03-03T08:24:09.367Z,30.77
2018-03-03T08:26:37.246Z,29.53
2018-03-03T08:29:04.900Z,29.17
2018-03-03T08:31:32.435Z,27.63
2018-03-03T08:34:00.340Z,28.53
2018-03-03T08:36:28.932Z,28.23
2018-03-03T08:38:56.443Z,28.90
2018-03-03T08:41:24.375Z,27.90
2018-03-03T08:43:52.007Z,29.33
2018-03-03T08:46:19.574Z,27.73
2018-03-03T08:48:47.103Z,27.03
2018-03-03T08:51:14.647Z,28.47
2018-03-03T08:53:42.567Z,26.00
2018-03-03T08:56:10.085Z,26.10
2018-03-03T08:58:37.621Z,27.13
2018-03-03T09:01:05.571Z,27.27
2018-03-03T09:03:33.117Z,26.53
2018-03-03T09:06:00.623Z,27.50
2018-03-03T09:08:28.159Z,26.17
2018-03-03T09:10:56.061Z,25.90
2018-03-03T09:13:23.611Z,25.70
2018-03-03T09:15:51.224Z,25.57
2018-03-03T09:18:19.175Z,27.23
2018-03-03T09:20:46.698Z,24.87
2018-03-03T09:23:14.265Z,24.40
2018-03-03T09:25:41.785Z,24.63
2018-03-03T09:28:09.717Z,25.20
2018-03-03T09:30:37.711Z,25.60
2018-03-03T09:33:05.417Z,23.97
2018-03-03T09:35:32.932Z,22.37
2018-03-03T09:38:00.499Z,22.70
2018-03-03T09:40:28.422Z,25.03
2018-03-03T09:42:55.935Z,23.50
2018-03-03T09:45:23.868Z,22.70
2018-03-03T09:47:51.407Z,23.60
2018-03-03T09:50:20.219Z,21.37
2018-03-03T09:52:48.042Z,20.17
2018-03-03T09:55:15.601Z,18.57
2018-03-03T09:57:43.183Z,19.43
2018-03-03T10:00:10.725Z,20.93
2018-03-03T10:02:38.232Z,19.40
2018-03-03T10:05:06.185Z,18.40
2018-03-03T10:07:33.746Z,17.90
2018-03-03T10:10:01.277Z,16.43
2018-03-03T10:12:28.819Z,16.70
2018-03-03T10:14:56.355Z,15.67
2018-03-03T10:17:23.882Z,15.53
2018-03-03T10:19:51.420Z,15.50
2018-03-03T10:22:18.936Z,15.73
2018-03-03T10:24:46.479Z,16.67
2018-03-03T10:27:14.418Z,16.60
2018-03-03T10:29:41.953Z,16.63
2018-03-03T10:32:12.287Z,16.57
2018-03-03T10:34:39.935Z,15.00
2018-03-03T10:37:08.216Z,16.83
2018-03-03T10:39:35.732Z,15.13
2018-03-03T10:42:03.411Z,14.23
2018-03-03T10:44:30.991Z,13.10
2018-03-03T10:46:58.551Z,14.17
2018-03-03T10:49:26.068Z,12.87
2018-03-03T10:51:53.625Z,12.97
2018-03-03T10:54:21.152Z,14.23
2018-03-03T10:56:48.788Z,19.67
2018-03-03T10:59:16.300Z,26.13
2018-03-03T11:01:44.236Z,19.37
2018-03-03T11:04:11.758Z,30.63
2018-03-03T11:06:39.281Z,35.10
2018-03-03T11:09:07.230Z,37.57
2018-03-03T11:11:35.133Z,34.13
2018-03-03T11:14:02.676Z,35.17
2018-03-03T11:16:30.587Z,37.30
2018-03-03T11:18:58.116Z,39.23
2018-03-03T11:21:25.632Z,37.63
2018-03-03T11:23:53.256Z,35.20
2018-03-03T11:26:20.767Z,36.90
2018-03-03T11:28:48.695Z,40.77
2018-03-03T11:31:16.643Z,38.77
2018-03-03T11:33:44.197Z,37.17
2018-03-03T11:36:11.711Z,38.43
2018-03-03T11:38:39.661Z,38.87
2018-03-03T11:41:07.284Z,38.50
2018-03-03T11:43:34.944Z,36.70
2018-03-03T11:46:02.455Z,36.77
2018-03-03T11:48:30.413Z,38.57
2018-03-03T11:50:58.335Z,37.00
2018-03-03T11:53:25.869Z,36.40
2018-03-03T11:55:53.407Z,37.90
2018-03-03T11:58:21.336Z,37.03
2018-03-03T12:00:48.908Z,37.03
2018-03-03T12:03:16.451Z,34.60
2018-03-03T12:05:43.974Z,35.37
2018-03-03T12:08:11.520Z,33.43
2018-03-03T12:10:39.483Z,29.47
2018-03-03T12:13:07.406Z,33.67
2018-03-03T12:15:35.025Z,32.73
2018-03-03T12:18:02.683Z,32.50
2018-03-03T12:20:30.199Z,31.20
2018-03-03T12:22:57.739Z,32.07
2018-03-03T12:25:25.242Z,31.57
2018-03-03T12:27:53.204Z,33.77
2018-03-03T12:30:21.106Z,29.67
2018-03-03T12:32:48.863Z,30.03
2018-03-03T12:35:16.395Z,29.43
2018-03-03T12:37:44.401Z,29.00
2018-03-03T12:40:11.923Z,29.30
2018-03-03T12:42:39.866Z,31.17
2018-03-03T12:45:07.379Z,28.57
2018-03-03T12:47:34.978Z,27.83
2018-03-03T12:50:02.452Z,30.07
2018-03-03T12:52:29.984Z,34.53
2018-03-03T12:54:57.504Z,35.43
2018-03-03T12:57:25.016Z,34.33
2018-03-03T12:59:52.540Z,35.47
2018-03-03T13:02:20.050Z,37.80
2018-03-03T13:04:47.992Z,35.47
2018-03-03T13:07:15.524Z,33.20
2018-03-03T13:09:43.068Z,33.93
2018-03-03T13:12:10.575Z,33.63
2018-03-03T13:14:38.099Z,34.50
2018-03-03T13:17:05.659Z,35.20
2018-03-03T13:19:33.202Z,32.87
2018-03-03T13:22:00.716Z,31.53
2018-03-03T13:24:28.327Z,36.00
2018-03-03T13:26:55.842Z,35.23
2018-03-03T13:29:23.383Z,36.17
2018-03-03T13:31:50.899Z,34.60
2018-03-03T13:34:18.433Z,36.87
2018-03-03T13:36:46.430Z,33.57
2018-03-03T13:39:13.959Z,34.17
2018-03-03T13:41:41.867Z,34.80
2018-03-03T13:44:09.403Z,33.23
2018-03-03T13:46:36.908Z,31.93
2018-03-03T13:49:04.446Z,31.83
2018-03-03T13:51:31.963Z,33.10
2018-03-03T13:53:59.504Z,31.90
2018-03-03T13:56:27.419Z,30.03
2018-03-03T13:58:54.965Z,30.70
2018-03-03T14:01:22.480Z,30.00
2018-03-03T14:03:50.429Z,29.10
2018-03-03T14:06:17.952Z,30.73
2018-03-03T14:08:45.511Z,29.90
2018-03-03T14:11:13.027Z,32.07
2018-03-03T14:13:40.952Z,29.77
2018-03-03T14:16:08.458Z,28.97
2018-03-03T14:18:36.419Z,29.67
2018-03-03T14:21:04.339Z,29.40
2018-03-03T14:23:31.865Z,29.90
2018-03-03T14:25:59.388Z,30.93
2018-03-03T14:28:27.004Z,28.40
2018-03-03T14:30:54.537Z,29.23
2018-03-03T14:33:22.060Z,26.70
2018-03-03T14:35:49.607Z,27.97
2018-03-03T14:38:17.208Z,28.13
2018-03-03T14:40:44.748Z,28.40
2018-03-03T14:43:12.268Z,29.63
2018-03-03T14:45:39.806Z,27.50
2018-03-03T14:48:07.323Z,28.40
2018-03-03T14:50:35.255Z,27.80
2018-03-03T14:53:02.771Z,27.30
2018-03-03T14:55:30.341Z,28.53
2018-03-03T14:57:57.956Z,28.13
2018-03-03T15:00:25.530Z,28.13
2018-03-03T15:02:53.434Z,27.17
2018-03-03T15:05:20.959Z,27.10
2018-03-03T15:07:48.891Z,28.20
2018-03-03T15:10:16.519Z,26.60
2018-03-03T15:12:44.088Z,26.53
2018-03-03T15:15:11.602Z,25.47
2018-03-03T15:17:39.567Z,27.60
2018-03-03T15:20:07.475Z,26.17
2018-03-03T15:22:35.009Z,25.90
2018-03-03T15:25:02.532Z,25.67
2018-03-03T15:27:30.063Z,27.97
2018-03-03T15:29:57.575Z,25.43
2018-03-03T15:32:25.516Z,27.57
2018-03-03T15:34:53.050Z,27.03
2018-03-03T15:37:20.604Z,28.00
2018-03-03T15:39:48.116Z,25.50
2018-03-03T15:42:16.053Z,28.23
2018-03-03T15:44:43.580Z,27.33
2018-03-03T15:47:11.107Z,27.90
2018-03-03T15:49:38.712Z,26.73
2018-03-03T15:52:06.267Z,28.10
2018-03-03T15:54:33.825Z,27.17
2018-03-03T15:57:01.345Z,25.60
2018-03-03T15:59:28.878Z,27.00
2018-03-03T16:01:56.799Z,27.70
2018-03-03T16:04:24.358Z,26.63
2018-03-03T16:06:51.914Z,26.67
2018-03-03T16:09:19.449Z,25.83
2018-03-03T16:11:46.973Z,26.57
2018-03-03T16:14:14.922Z,28.07
2018-03-03T16:16:42.628Z,26.10
2018-03-03T16:19:10.188Z,25.53
2018-03-03T16:21:37.736Z,23.57
2018-03-03T16:24:05.662Z,25.07
2018-03-03T16:26:33.195Z,24.23
2018-03-03T16:29:00.722Z,24.83
2018-03-03T16:31:28.619Z,26.00
2018-03-03T16:33:56.176Z,24.70
2018-03-03T16:36:23.707Z,25.83
2018-03-03T16:38:51.643Z,24.53
2018-03-03T16:41:19.167Z,24.87
2018-03-03T16:43:46.703Z,24.43
2018-03-03T16:46:14.290Z,22.97
2018-03-03T16:48:41.819Z,21.93
2018-03-03T16:51:09.386Z,25.20
2018-03-03T16:53:36.901Z,24.60
2018-03-03T16:56:04.868Z,25.33
2018-03-03T16:58:32.787Z,25.60
2018-03-03T17:01:00.333Z,26.53
2018-03-03T17:03:27.989Z,25.63
2018-03-03T17:05:55.551Z,26.50
2018-03-03T17:08:23.080Z,25.73
2018-03-03T17:10:51.013Z,25.87
2018-03-03T17:13:18.535Z,24.73
2018-03-03T17:15:46.073Z,23.87
2018-03-03T17:18:13.993Z,27.20
2018-03-03T17:20:42.232Z,27.70
2018-03-03T17:23:09.852Z,28.57
2018-03-03T17:25:37.404Z,23.47
2018-03-03T17:28:04.921Z,27.30
2018-03-03T17:30:32.459Z,26.10
2018-03-03T17:32:59.968Z,30.90
2018-03-03T17:35:27.608Z,29.90
2018-03-03T17:37:55.134Z,27.93
2018-03-03T17:40:22.687Z,28.03
2018-03-03T17:42:50.602Z,27.00
2018-03-03T17:45:18.148Z,25.27
2018-03-03T17:47:45.658Z,27.30
2018-03-03T17:50:13.675Z,28.53
2018-03-03T17:52:41.199Z,27.70
2018-03-03T17:55:09.107Z,27.23
2018-03-03T17:57:36.627Z,26.67
2018-03-03T18:00:04.551Z,25.50
2018-03-03T18:02:32.092Z,27.33
2018-03-03T18:04:59.603Z,29.20
2018-03-03T18:07:27.527Z,27.80
2018-03-03T18:09:55.135Z,30.47
2018-03-03T18:12:23.074Z,28.33
2018-03-03T18:14:50.727Z,30.00
2018-03-03T18:17:18.273Z,28.37
2018-03-03T18:19:45.790Z,28.30
2018-03-03T18:22:13.319Z,27.37
2018-03-03T18:24:41.432Z,28.47
2018-03-03T18:27:09.072Z,27.73
2018-03-03T18:29:36.985Z,27.83
2018-03-03T18:32:04.547Z,26.43
2018-03-03T18:34:32.137Z,22.10
2018-03-03T18:37:00.080Z,27.73
2018-03-03T18:39:27.705Z,25.73
2018-03-03T18:41:55.238Z,26.37
2018-03-03T18:44:23.145Z,24.17
2018-03-03T18:46:50.664Z,25.77
2018-03-03T18:49:18.592Z,25.07
2018-03-03T18:51:46.109Z,24.50
2018-03-03T18:54:13.643Z,24.70
2018-03-03T18:56:41.552Z,24.97
2018-03-03T18:59:09.198Z,28.20
2018-03-03T19:01:36.703Z,27.10
2018-03-03T19:04:04.231Z,23.57
2018-03-03T19:06:31.754Z,21.20
2018-03-03T19:08:59.690Z,22.43
2018-03-03T19:11:27.227Z,27.57
2018-03-03T19:13:54.771Z,25.20
2018-03-03T19:16:22.292Z,28.10
2018-03-03T19:18:50.649Z,29.27
2018-03-03T19:21:18.788Z,27.03
2018-03-03T19:23:46.332Z,28.23
2018-03-03T19:26:13.870Z,28.63
2018-03-03T19:28:41.460Z,28.00
2018-03-03T19:31:09.019Z,27.37
2018-03-03T19:33:36.991Z,27.63
2018-03-03T19:36:04.511Z,29.67
2018-03-03T19:38:32.052Z,27.27
2018-03-03T19:40:59.967Z,29.17
2018-03-03T19:43:27.496Z,27.70
2018-03-03T19:45:55.004Z,27.37
2018-03-03T19:48:22.550Z,27.37
2018-03-03T19:50:50.076Z,28.60
2018-03-03T19:53:17.636Z,25.33
2018-03-03T19:55:45.224Z,26.07
2018-03-03T19:58:12.755Z,27.47
2018-03-03T20:00:40.259Z,26.63
2018-03-03T20:03:07.800Z,26.43
2018-03-03T20:05:35.318Z,25.93
2018-03-03T20:08:02.852Z,26.00
2018-03-03T20:10:30.784Z,27.13
2018-03-03T20:12:58.528Z,26.60
2018-03-03T20:15:26.181Z,25.93
2018-03-03T20:17:53.720Z,26.43
2018-03-03T20:20:21.237Z,26.13
2018-03-03T20:22:48.763Z,23.90
2018-03-03T20:25:16.288Z,25.33
2018-03-03T20:27:44.196Z,24.93
2018-03-03T20:30:11.727Z,25.97
2018-03-03T20:32:39.236Z,24.10
2018-03-03T20:35:06.768Z,24.73
2018-03-03T20:37:34.277Z,25.80
2018-03-03T20:40:02.195Z,24.53
2018-03-03T20:42:29.736Z,25.33
2018-03-03T20:44:57.305Z,25.10
2018-03-03T20:47:24.864Z,24.87
2018-03-03T20:49:52.409Z,24.77
2018-03-03T20:52:19.928Z,24.47
2018-03-03T20:54:47.937Z,23.47
2018-03-03T20:57:15.599Z,25.63
2018-03-03T20:59:43.260Z,25.90
2018-03-03T21:02:10.857Z,24.47
2018-03-03T21:04:38.388Z,26.67
2018-03-03T21:07:05.907Z,26.13
2018-03-03T21:09:33.835Z,27.03
2018-03-03T21:12:04.079Z,25.83
2018-03-03T21:14:31.627Z,25.70
2018-03-03T21:16:59.147Z,27.93
2018-03-03T21:19:26.712Z,27.13
2018-03-03T21:21:54.223Z,25.50
2018-03-03T21:24:22.141Z,27.10
2018-03-03T21:26:49.663Z,25.57
2018-03-03T21:29:17.188Z,26.50
2018-03-03T21:31:44.704Z,26.30
2018-03-03T21:34:12.236Z,26.17
2018-03-03T21:36:39.763Z,26.80
2018-03-03T21:39:07.293Z,26.80
2018-03-03T21:41:34.802Z,27.27
2018-03-03T21:44:02.733Z,26.10
2018-03-03T21:46:30.255Z,25.13
2018-03-03T21:48:57.783Z,25.33
2018-03-03T21:51:25.713Z,28.47
2018-03-03T21:53:53.327Z,28.37
2018-03-03T21:56:20.856Z,27.40
2018-03-03T21:58:48.768Z,25.27
2018-03-03T22:01:16.290Z,27.13
2018-03-03T22:03:44.292Z,26.23
2018-03-03T22:06:11.849Z,26.17
2018-03-03T22:08:39.382Z,30.27
2018-03-03T22:11:07.311Z,28.30
2018-03-03T22:13:34.834Z,28.57
2018-03-03T22:16:02.361Z,28.67
2018-03-03T22:18:30.287Z,26.87
2018-03-03T22:20:57.813Z,28.40
2018-03-03T22:23:25.339Z,26.50
2018-03-03T22:25:53.259Z,25.97
2018-03-03T22:28:20.822Z,26.97
2018-03-03T22:30:48.404Z,25.13
2018-03-03T22:33:15.917Z,25.03
2018-03-03T22:35:43.430Z,26.83
2018-03-03T22:38:11.368Z,25.27
2018-03-03T22:40:38.910Z,26.90
2018-03-03T22:43:06.446Z,25.47
2018-03-03T22:45:33.967Z,26.80
2018-03-03T22:48:01.516Z,26.50
2018-03-03T22:50:29.052Z,25.83
2018-03-03T22:52:56.567Z,26.07
2018-03-03T22:55:24.101Z,27.27
2018-03-03T22:57:51.609Z,24.37
2018-03-03T23:00:19.144Z,25.60
2018-03-03T23:02:46.734Z,25.97
2018-03-03T23:05:14.404Z,24.90
2018-03-03T23:07:41.907Z,26.83
2018-03-03T23:10:09.843Z,24.30
2018-03-03T23:12:37.348Z,26.73
2018-03-03T23:15:04.887Z,25.03
2018-03-03T23:17:32.800Z,25.60
2018-03-03T23:20:00.368Z,26.50
2018-03-03T23:22:27.888Z,25.43
2018-03-03T23:24:55.419Z,26.33
2018-03-03T23:27:23.338Z,27.10
2018-03-03T23:29:50.858Z,25.57
2018-03-03T23:32:18.759Z,27.07
2018-03-03T23:34:46.284Z,26.43
2018-03-03T23:37:14.204Z,25.97
2018-03-03T23:39:41.738Z,26.57
2018-03-03T23:42:09.243Z,26.90
2018-03-03T23:44:36.786Z,25.13
2018-03-03T23:47:04.331Z,25.77
2018-03-03T23:49:31.851Z,26.70
2018-03-03T23:51:59.375Z,26.00
2018-03-03T23:54:27.030Z,26.60
2018-03-03T23:56:54.560Z,27.07
2018-03-03T23:59:22.077Z,25.30
